Time;durP1;ratioP1;P1;durP2;ratioP2;P2;SDS_P1;SDS_P2;PMS_P1;PMS_P2;Temp;Humidity;BMP_temperature;BMP_pressure;BME280_temperature;BME280_humidity;BME280_pressure;Samples;Min_cycle;Max_cycle;Signal;HPM_P1;HPM_P2
2020/12/18 08:52:34;;;;;;;22.60;15.35;;;3.10;96.50;;;;;;5696529;24;20444;-67
2020/12/18 08:55:51;;;;;;;;;;;;;;;;;;;;;
2020/12/18 08:59:11;;;;;;;;;;;;;;;;;;;;;
2020/12/18 09:05:34;;;;;;;;;;;;;;;;;;;;;
2020/12/18 09:09:05;;;;;;;;;;;;;;;;;;;;;
2020/12/18 09:12:47;;;;;;;27.58;18.08;;;2.90;95.70;;;;;;5681283;24;20419;-73
2020/12/18 09:15:45;;;;;;;28.90;17.52;;;2.90;96.40;;;;;;5663083;24;20353;-73
2020/12/18 09:18:58;;;;;;;;;;;;;;;;;;;;;
2020/12/18 09:28:39;;;;;;;24.90;17.37;;;2.70;95.80;;;;;;5857418;24;20104;-73
2020/12/18 09:31:47;;;;;;;29.95;19.73;;;2.70;95.80;;;;;;5809304;24;20663;-74
2020/12/18 09:38:17;;;;;;;26.67;18.42;;;2.60;95.50;;;;;;5750111;24;20654;-73
2020/12/18 09:44:28;;;;;;;26.02;17.65;;;2.50;95.30;;;;;;6019355;23;20307;-72
2020/12/18 09:47:18;;;;;;;23.40;16.30;;;2.50;95.50;;;;;;6024179;23;20632;-70
2020/12/18 09:53:27;;;;;;;25.00;16.13;;;2.60;95.60;;;;;;6020673;23;20022;-75
2020/12/18 09:56:34;;;;;;;28.67;19.10;;;2.60;95.50;;;;;;6021756;23;20497;-72
2020/12/18 09:59:28;;;;;;;24.65;16.73;;;2.60;95.10;;;;;;6019698;23;20432;-72
2020/12/18 10:02:22;;;;;;;24.52;17.42;;;2.60;96.20;;;;;;5991238;23;20342;-74
2020/12/18 10:05:23;;;;;;;23.65;15.88;;;2.60;95.90;;;;;;6028197;23;20389;-69
2020/12/18 10:07:52;;;;;;;25.75;16.98;;;2.70;96.10;;;;;;6019627;23;20406;-71
2020/12/18 10:10:39;;;;;;;30.92;20.08;;;2.70;95.80;;;;;;6030973;23;20342;-69
2020/12/18 10:14:17;;;;;;;;;;;;;;;;;;;;;
2020/12/18 10:16:54;;;;;;;27.38;18.30;;;2.70;94.70;;;;;;5982030;23;20534;-75
2020/12/18 10:22:50;;;;;;;;;;;;;;;;;;;;;
2020/12/18 10:25:32;;;;;;;37.28;22.63;;;2.70;95.30;;;;;;6023704;23;20272;-73
2020/12/18 10:28:29;;;;;;;;;;;;;;;;;;;;;
2020/12/18 10:34:26;;;;;;;24.50;17.70;;;2.60;95.30;;;;;;5886207;23;20564;-70
2020/12/18 10:37:07;;;;;;;26.95;18.83;;;2.70;95.60;;;;;;5918807;23;20023;-71
2020/12/18 10:40:05;;;;;;;;;;;;;;;;;;;;;
2020/12/18 10:43:05;;;;;;;27.77;18.38;;;2.80;94.90;;;;;;5925371;23;20027;-72
2020/12/18 10:46:15;;;;;;;28.02;18.45;;;2.70;94.50;;;;;;5914133;23;20367;-69
2020/12/18 10:49:06;;;;;;;29.88;18.10;;;2.70;94.60;;;;;;5935277;23;20328;-70
2020/12/18 10:52:28;;;;;;;;;;;;;;;;;;;;;
2020/12/18 10:57:58;;;;;;;27.67;18.25;;;2.70;95.20;;;;;;5970775;23;20607;-75
2020/12/18 11:00:47;;;;;;;;;;;;;;;;;;;;;
2020/12/18 11:03:34;;;;;;;27.10;17.92;;;2.70;94.90;;;;;;6031735;23;20495;-75
2020/12/18 11:06:39;;;;;;;;;;;;;;;;;;;;;
2020/12/18 11:09:38;;;;;;;23.00;16.77;;;2.70;95.00;;;;;;6012491;23;20304;-75
2020/12/18 11:16:18;;;;;;;24.88;17.25;;;2.80;94.90;;;;;;5804848;24;20598;-73
2020/12/18 11:19:12;;;;;;;30.27;20.63;;;2.90;94.90;;;;;;5820645;24;20688;-74
2020/12/18 11:21:58;;;;;;;24.55;17.80;;;2.90;94.30;;;;;;5870424;24;20638;-73
2020/12/18 11:25:02;;;;;;;25.65;18.08;;;2.80;94.70;;;;;;5893048;23;20051;-68
2020/12/18 11:27:45;;;;;;;23.52;18.08;;;2.80;94.30;;;;;;5992497;23;20695;-71
2020/12/18 11:30:36;;;;;;;26.20;18.45;;;2.80;94.50;;;;;;6012300;23;20318;-71
2020/12/18 11:36:13;;;;;;;30.42;20.40;;;2.80;94.80;;;;;;5984879;23;20359;-73
2020/12/18 11:39:08;;;;;;;26.30;18.15;;;2.80;94.40;;;;;;6032286;23;20024;-73
2020/12/18 11:41:51;;;;;;;;;;;;;;;;;;;;;
2020/12/18 11:44:45;;;;;;;27.55;18.73;;;2.70;94.40;;;;;;6007122;23;20821;-74
2020/12/18 11:47:23;;;;;;;;;;;;;;;;;;;;;
2020/12/18 11:50:01;;;;;;;21.95;16.10;;;2.70;94.70;;;;;;5977134;23;20424;-73
2020/12/18 11:52:53;;;;;;;24.48;17.42;;;2.80;94.90;;;;;;5982790;23;20045;-70
2020/12/18 11:55:47;;;;;;;24.17;16.60;;;2.90;94.70;;;;;;6029464;23;20373;-73
2020/12/18 11:59:10;;;;;;;25.95;18.10;;;2.90;95.10;;;;;;5996475;23;20430;-75
2020/12/18 12:01:37;;;;;;;23.80;15.90;;;3.00;95.10;;;;;;6006226;23;20033;-72
2020/12/18 12:07:14;;;;;;;23.33;17.13;;;3.10;94.60;;;;;;6002699;23;20022;-75
2020/12/18 12:09:42;;;;;;;24.45;17.23;;;3.20;95.10;;;;;;6043713;23;20441;-72
2020/12/18 12:12:19;;;;;;;26.55;17.98;;;3.20;94.80;;;;;;6036993;23;20311;-70
2020/12/18 12:14:47;;;;;;;26.17;18.33;;;3.20;94.40;;;;;;6009322;23;20407;-74
2020/12/18 12:17:24;;;;;;;31.48;21.30;;;3.20;94.40;;;;;;6016250;23;20077;-75
2020/12/18 12:20:13;;;;;;;27.77;20.05;;;3.20;93.90;;;;;;6010354;23;20437;-70
2020/12/18 12:22:49;;;;;;;;;;;;;;;;;;;;;
2020/12/18 12:25:18;;;;;;;27.48;18.80;;;3.00;94.10;;;;;;5999810;23;20601;-68
2020/12/18 12:27:58;;;;;;;26.05;18.45;;;3.00;94.40;;;;;;6031247;23;20383;-71
2020/12/18 12:30:33;;;;;;;32.22;20.60;;;3.00;94.10;;;;;;6017489;23;20524;-70
2020/12/18 12:33:08;;;;;;;30.05;20.95;;;2.90;93.50;;;;;;6010047;23;20480;-72
2020/12/18 12:35:48;;;;;;;29.50;19.88;;;2.90;93.50;;;;;;6018227;23;20403;-78
2020/12/18 12:38:13;;;;;;;33.13;20.80;;;2.80;93.50;;;;;;6012205;23;20053;-72
2020/12/18 12:40:52;;;;;;;29.38;20.13;;;2.80;93.50;;;;;;6008343;23;20045;-75
2020/12/18 12:43:21;;;;;;;26.38;18.25;;;2.70;93.40;;;;;;5968951;23;20445;-74
2020/12/18 12:45:47;;;;;;;27.13;17.65;;;2.70;93.70;;;;;;5989149;23;20455;-70
2020/12/18 12:51:58;;;;;;;24.65;17.65;;;2.70;93.60;;;;;;5886539;23;20023;-71
2020/12/18 12:54:43;;;;;;;21.67;15.20;;;2.70;93.80;;;;;;5896591;23;20372;-74
2020/12/18 12:57:10;;;;;;;21.52;14.85;;;2.80;94.00;;;;;;6011195;23;20463;-74
2020/12/18 12:59:36;;;;;;;25.67;18.15;;;2.80;94.30;;;;;;6020432;23;20387;-72
2020/12/18 13:02:02;;;;;;;23.38;17.10;;;2.90;93.90;;;;;;6014795;23;20246;-71
2020/12/18 13:04:37;;;;;;;24.42;16.30;;;2.90;93.80;;;;;;6013660;23;21104;-73
2020/12/18 13:07:08;;;;;;;21.58;14.60;;;2.90;93.90;;;;;;6011086;23;20550;-77
2020/12/18 13:09:36;;;;;;;20.67;14.68;;;3.00;93.90;;;;;;5991152;23;20783;-73
2020/12/18 13:12:30;;;;;;;21.23;15.05;;;3.00;93.90;;;;;;5996284;23;20426;-76
2020/12/18 13:15:04;;;;;;;21.08;14.90;;;3.00;93.80;;;;;;5994445;23;20342;-70
2020/12/18 13:17:30;;;;;;;21.35;15.20;;;3.00;93.50;;;;;;6020881;23;20320;-75
2020/12/18 13:20:00;;;;;;;23.05;15.45;;;2.90;93.40;;;;;;6018374;23;20288;-75
2020/12/18 13:22:26;;;;;;;25.33;16.77;;;2.90;93.60;;;;;;6018737;23;20011;-73
2020/12/18 13:24:51;;;;;;;22.88;16.08;;;2.80;93.30;;;;;;6019569;23;20029;-73
2020/12/18 13:27:17;;;;;;;25.42;17.38;;;2.80;93.60;;;;;;6018480;23;20308;-73
2020/12/18 13:29:43;;;;;;;26.92;18.25;;;2.80;93.30;;;;;;5995432;23;20546;-73
2020/12/18 13:32:16;;;;;;;26.30;18.20;;;2.80;93.10;;;;;;6023023;23;20265;-76
2020/12/18 13:34:46;;;;;;;29.35;18.70;;;2.70;93.20;;;;;;6019482;23;20291;-73
2020/12/18 13:37:12;;;;;;;30.83;20.65;;;2.70;93.00;;;;;;5995516;23;20033;-69
2020/12/18 13:39:52;;;;;;;29.23;19.63;;;2.60;92.80;;;;;;6020917;23;20006;-77
2020/12/18 13:42:20;;;;;;;31.38;20.35;;;2.50;92.90;;;;;;6008879;23;20417;-65
2020/12/18 13:44:51;;;;;;;33.67;21.00;;;2.50;92.90;;;;;;6050672;23;20260;-74
2020/12/18 13:47:17;;;;;;;31.95;19.92;;;2.40;92.80;;;;;;6023942;23;20552;-73
2020/12/18 13:49:44;;;;;;;29.67;19.85;;;2.30;92.80;;;;;;6024085;23;20474;-74
